Terminal Aerodrome Forecast
Issued by NWS Sioux Falls, SD

Home | Current Version | Previous Version | Graphics & Text | Print | Product List | Glossary On
Versions: 1 2 3 4 5 6 7 8 9 10 11 12 13 14 15 16 17 18
000
FTUS43 KFSD 260953 AAC
TAFFSD
TAF AMD
KFSD 260953Z 2610/2706 34015G22KT P6SM OVC012
      TEMPO 2610/2613 5SM -DZ BR OVC008
     FM261300 33014G21KT P6SM OVC008
     FM261500 33017G24KT P6SM OVC010
     FM261800 33016G24KT P6SM OVC020
     FM270100 34012KT P6SM BKN035=

USA.gov is the U.S. government's official web portal to all federal, state and local government web resources and services.